Terminal Aerodrome Forecast
Issued by NWS

Home | Current Version | Previous Version | Text Only | Print | Product List | Glossary On
Versions: 1 2 3 4 5 6 7 8 9 10 11 12
654
FTUS46 KLOX 212335
TAFVNY
TAF
KVNY 212335Z 2200/2224 15008KT P6SM SKC
     FM220300 12006KT P6SM SKC
     FM221000 VRB03KT P6SM SKC
     FM221900 14008KT P6SM SKC=

USA.gov is the U.S. government's official web portal to all federal, state and local government web resources and services.